createdAt,value
2022-12-25T00:02:01.983Z,94379.19
2022-12-25T00:04:28.836Z,94379.97
2022-12-25T00:06:56.144Z,94387.03
2022-12-25T00:09:23.064Z,94384.63
2022-12-25T00:11:49.795Z,94384.47
2022-12-25T00:14:16.563Z,94385.09
2022-12-25T00:16:43.252Z,94383.97
2022-12-25T00:19:09.940Z,94391.34
2022-12-25T00:21:36.576Z,94391.66
2022-12-25T00:24:03.707Z,94398.84
2022-12-25T00:26:30.361Z,94397.28
2022-12-25T00:28:58.237Z,94397.28
2022-12-25T00:31:26.178Z,94396.28
2022-12-25T00:33:53.521Z,94400.00
2022-12-25T00:36:21.854Z,94398.03
2022-12-25T00:38:48.757Z,94402.84
2022-12-25T00:41:39.355Z,94403.47
2022-12-25T00:44:07.102Z,94401.44
2022-12-25T00:46:33.925Z,94404.66
2022-12-25T00:49:00.989Z,94412.53
2022-12-25T00:51:27.968Z,94415.25
2022-12-25T00:53:54.749Z,94413.16
2022-12-25T00:56:21.409Z,94411.38
2022-12-25T00:58:48.285Z,94403.53
2022-12-25T01:01:15.091Z,94403.97
2022-12-25T01:03:41.932Z,94403.97
2022-12-25T01:06:08.920Z,94405.28
2022-12-25T01:08:37.858Z,94402.41
2022-12-25T01:11:06.933Z,94415.56
2022-12-25T01:13:35.842Z,94412.34
2022-12-25T01:16:10.378Z,94414.13
2022-12-25T01:18:38.089Z,94417.81
2022-12-25T01:21:08.645Z,94410.28
2022-12-25T01:23:35.617Z,94411.72
2022-12-25T01:26:06.521Z,94421.81
2022-12-25T01:28:33.255Z,94426.47
2022-12-25T01:31:00.028Z,94431.59
2022-12-25T01:33:27.302Z,94432.75
2022-12-25T01:35:54.192Z,94429.22
2022-12-25T01:38:21.541Z,94443.81
2022-12-25T01:40:48.221Z,94443.16
2022-12-25T01:43:25.126Z,94440.59
2022-12-25T01:45:52.838Z,94431.94
2022-12-25T01:48:22.187Z,94433.88
2022-12-25T01:50:59.435Z,94439.63
2022-12-25T01:53:26.595Z,94444.13
2022-12-25T01:55:58.250Z,94447.66
2022-12-25T01:58:25.388Z,94443.47
2022-12-25T02:00:52.858Z,94452.13
2022-12-25T02:03:20.362Z,94446.69
2022-12-25T02:05:47.765Z,94439.31
2022-12-25T02:08:16.699Z,94443.16
2022-12-25T02:10:44.891Z,94428.41
2022-12-25T02:13:13.558Z,94440.13
2022-12-25T02:16:07.507Z,94432.59
2022-12-25T02:18:39.185Z,94438.84
2022-12-25T02:21:29.206Z,94422.47
2022-12-25T02:24:15.982Z,94417.16
2022-12-25T02:27:14.694Z,94411.56
2022-12-25T02:30:00.028Z,94400.06
2022-12-25T02:32:32.482Z,94414.16
2022-12-25T02:35:23.619Z,94415.91
2022-12-25T02:37:57.031Z,94410.94
2022-12-25T02:40:28.901Z,94404.69
2022-12-25T02:43:27.661Z,94395.88
2022-12-25T02:46:18.211Z,94409.22
2022-12-25T02:49:09.569Z,94420.25
2022-12-25T02:51:57.641Z,94416.91
2022-12-25T02:54:49.419Z,94425.56
2022-12-25T02:57:36.309Z,94424.28
2022-12-25T03:00:23.769Z,94412.28
2022-12-25T03:03:09.587Z,94420.75
2022-12-25T03:05:57.528Z,94410.19
2022-12-25T03:08:28.262Z,94414.66
2022-12-25T03:11:21.613Z,94415.13
2022-12-25T03:13:53.740Z,94408.09
2022-12-25T03:16:39.533Z,94409.84
2022-12-25T03:19:26.300Z,94424.94
2022-12-25T03:22:12.980Z,94424.28
2022-12-25T03:24:59.066Z,94416.91
2022-12-25T03:27:26.456Z,94429.09
2022-12-25T03:30:11.706Z,94431.47
2022-12-25T03:33:43.187Z,94421.22
2022-12-25T03:36:10.598Z,94414.03
2022-12-25T03:38:51.260Z,94415.28
2022-12-25T03:42:01.693Z,94412.28
2022-12-25T03:44:52.717Z,94405.03
2022-12-25T03:47:37.737Z,94408.75
2022-12-25T03:50:45.099Z,94414.66
2022-12-25T03:53:35.542Z,94413.72
2022-12-25T03:56:21.060Z,94409.22
2022-12-25T03:59:21.081Z,94408.25
2022-12-25T04:02:09.391Z,94409.22
2022-12-25T04:04:54.863Z,94415.94
2022-12-25T04:07:40.340Z,94408.41
2022-12-25T04:10:26.769Z,94404.91
2022-12-25T04:13:12.077Z,94394.16
2022-12-25T04:15:57.352Z,94388.41
2022-12-25T04:18:43.325Z,94394.00
2022-12-25T04:21:28.615Z,94400.41
2022-12-25T04:24:13.852Z,94397.69
2022-12-25T04:26:59.312Z,94402.16
2022-12-25T04:29:44.507Z,94403.13
2022-12-25T04:32:29.354Z,94400.06
2022-12-25T04:35:14.740Z,94410.16
2022-12-25T04:37:41.338Z,94409.81
2022-12-25T04:40:08.655Z,94415.56
2022-12-25T04:42:35.400Z,94409.81
2022-12-25T04:45:02.091Z,94416.88
2022-12-25T04:47:28.717Z,94421.81
2022-12-25T04:49:55.305Z,94414.00
2022-12-25T04:52:21.915Z,94411.94
2022-12-25T04:54:48.575Z,94404.06
2022-12-25T04:57:15.716Z,94409.84
2022-12-25T04:59:42.343Z,94410.00
2022-12-25T05:02:09.216Z,94404.25
2022-12-25T05:04:36.010Z,94400.56
2022-12-25T05:07:02.771Z,94411.09
2022-12-25T05:09:29.484Z,94420.38
2022-12-25T05:11:56.223Z,94414.91
2022-12-25T05:14:22.861Z,94414.47
2022-12-25T05:16:49.770Z,94410.59
2022-12-25T05:19:16.418Z,94408.69
2022-12-25T05:21:43.032Z,94393.63
2022-12-25T05:24:09.681Z,94404.41
2022-12-25T05:26:37.126Z,94405.34
2022-12-25T05:29:03.751Z,94416.72
2022-12-25T05:31:30.407Z,94413.38
2022-12-25T05:33:57.132Z,94423.28
2022-12-25T05:36:23.733Z,94420.41
2022-12-25T05:38:50.545Z,94414.31
2022-12-25T05:41:17.332Z,94418.19
2022-12-25T05:43:43.897Z,94419.44
2022-12-25T05:46:11.011Z,94427.13
2022-12-25T05:48:38.275Z,94426.78
2022-12-25T05:51:10.659Z,94429.34
2022-12-25T05:53:38.397Z,94426.47
2022-12-25T05:56:06.328Z,94433.19
2022-12-25T05:58:35.047Z,94435.44
2022-12-25T06:01:02.223Z,94431.63
2022-12-25T06:03:28.938Z,94426.19
2022-12-25T06:05:55.604Z,94431.16
2022-12-25T06:08:22.233Z,94427.13
2022-12-25T06:10:48.854Z,94433.22
2022-12-25T06:13:15.451Z,94439.81
2022-12-25T06:15:42.550Z,94445.56
2022-12-25T06:18:09.477Z,94432.28
2022-12-25T06:20:36.569Z,94441.88
2022-12-25T06:23:03.183Z,94441.56
2022-12-25T06:25:29.798Z,94436.28
2022-12-25T06:27:56.383Z,94444.13
2022-12-25T06:30:23.075Z,94446.84
2022-12-25T06:32:49.674Z,94444.91
2022-12-25T06:35:16.277Z,94442.03
2022-12-25T06:37:42.854Z,94449.56
2022-12-25T06:40:09.837Z,94443.28
2022-12-25T06:42:36.593Z,94454.53
2022-12-25T06:45:03.325Z,94446.69
2022-12-25T06:47:29.905Z,94447.47
2022-12-25T06:49:56.995Z,94453.09
2022-12-25T06:52:23.635Z,94452.25
2022-12-25T06:54:50.276Z,94462.84
2022-12-25T06:57:16.960Z,94461.06
2022-12-25T06:59:43.617Z,94464.72
2022-12-25T07:02:20.234Z,94470.66
2022-12-25T07:04:47.169Z,94476.72
2022-12-25T07:07:14.488Z,94478.03
2022-12-25T07:09:42.793Z,94473.22
2022-12-25T07:12:21.912Z,94484.09
2022-12-25T07:14:50.119Z,94473.72
2022-12-25T07:17:17.827Z,94477.41
2022-12-25T07:19:45.400Z,94468.47
2022-12-25T07:22:13.159Z,94485.75
2022-12-25T07:24:39.762Z,94489.91
2022-12-25T07:27:06.454Z,94488.31
2022-12-25T07:29:33.172Z,94487.00
2022-12-25T07:32:00.078Z,94480.63
2022-12-25T07:34:26.810Z,94464.94
2022-12-25T07:36:54.789Z,94482.25
2022-12-25T07:39:21.504Z,94486.41
2022-12-25T07:41:48.221Z,94492.50
2022-12-25T07:44:15.704Z,94490.25
2022-12-25T07:46:42.723Z,94501.78
2022-12-25T07:49:09.948Z,94497.00
2022-12-25T07:51:36.840Z,94497.81
2022-12-25T07:54:03.655Z,94510.47
2022-12-25T07:56:30.326Z,94502.75
2022-12-25T07:58:57.110Z,94499.25
2022-12-25T08:01:25.523Z,94492.16
2022-12-25T08:03:54.435Z,94493.47
2022-12-25T08:06:22.777Z,94495.03
2022-12-25T08:08:49.484Z,94488.88
2022-12-25T08:11:16.208Z,94484.03
2022-12-25T08:13:42.881Z,94483.47
2022-12-25T08:16:10.860Z,94490.00
2022-12-25T08:18:38.882Z,94482.53
2022-12-25T08:21:07.983Z,94486.06
2022-12-25T08:23:35.812Z,94482.47
2022-12-25T08:26:05.377Z,94480.84
2022-12-25T08:28:33.518Z,94491.19
2022-12-25T08:31:00.324Z,94487.72
2022-12-25T08:33:27.033Z,94494.56
2022-12-25T08:35:53.830Z,94487.22
2022-12-25T08:38:20.587Z,94472.88
2022-12-25T08:40:47.191Z,94472.38
2022-12-25T08:43:13.821Z,94481.56
2022-12-25T08:45:40.471Z,94478.38
2022-12-25T08:48:07.068Z,94486.06
2022-12-25T08:50:33.713Z,94480.41
2022-12-25T08:53:00.456Z,94486.66
2022-12-25T08:55:27.082Z,94481.59
2022-12-25T08:57:54.427Z,94483.47
2022-12-25T09:00:21.323Z,94485.59
2022-12-25T09:02:48.227Z,94489.06
2022-12-25T09:05:15.101Z,94477.63
2022-12-25T09:07:41.848Z,94484.53
2022-12-25T09:10:09.167Z,94475.16
2022-12-25T09:12:35.932Z,94476.94
2022-12-25T09:15:02.815Z,94479.56
2022-12-25T09:17:29.523Z,94477.53
2022-12-25T09:19:56.306Z,94468.16
2022-12-25T09:22:23.077Z,94472.56
2022-12-25T09:24:49.880Z,94481.97
2022-12-25T09:27:16.585Z,94485.00
2022-12-25T09:29:43.356Z,94494.34
2022-12-25T09:32:10.155Z,94495.78
2022-12-25T09:34:36.909Z,94507.91
2022-12-25T09:37:03.685Z,94507.06
2022-12-25T09:39:30.387Z,94500.13
2022-12-25T09:42:14.267Z,94507.91
2022-12-25T09:44:44.467Z,94515.38
2022-12-25T09:47:14.624Z,94502.44
2022-12-25T09:49:47.011Z,94502.34
2022-12-25T09:52:30.775Z,94509.19
2022-12-25T09:55:14.768Z,94504.88
2022-12-25T09:57:45.737Z,94505.25
2022-12-25T10:00:19.046Z,94510.84
2022-12-25T10:02:48.969Z,94515.28
2022-12-25T10:05:21.616Z,94500.50
2022-12-25T10:07:57.096Z,94497.91
2022-12-25T10:10:41.935Z,94488.91
2022-12-25T10:13:19.862Z,94498.28
2022-12-25T10:16:11.359Z,94485.06
2022-12-25T10:18:56.872Z,94481.84
2022-12-25T10:21:23.967Z,94480.19
2022-12-25T10:24:03.775Z,94471.47
2022-12-25T10:26:31.613Z,94466.88
2022-12-25T10:29:16.328Z,94469.56
2022-12-25T10:31:46.466Z,94464.13
2022-12-25T10:34:14.032Z,94463.63
2022-12-25T10:36:42.442Z,94458.06
2022-12-25T10:39:16.084Z,94453.03
2022-12-25T10:41:54.881Z,94463.00
2022-12-25T10:44:24.664Z,94463.16
2022-12-25T10:46:54.135Z,94468.00
2022-12-25T10:49:23.368Z,94461.72
2022-12-25T10:51:51.033Z,94449.75
2022-12-25T10:54:30.120Z,94440.19
2022-12-25T10:56:59.280Z,94456.31
2022-12-25T10:59:27.944Z,94446.34
2022-12-25T11:01:56.318Z,94424.25
2022-12-25T11:04:26.944Z,94434.06
2022-12-25T11:06:58.885Z,94419.75
2022-12-25T11:09:25.747Z,94426.41
2022-12-25T11:11:52.935Z,94434.72
2022-12-25T11:14:21.005Z,94421.06
2022-12-25T11:16:47.814Z,94419.13
2022-12-25T11:19:27.077Z,94404.34
2022-12-25T11:21:56.212Z,94401.53
2022-12-25T11:24:27.000Z,94394.72
2022-12-25T11:26:57.025Z,94391.41
2022-12-25T11:29:48.033Z,94390.88
2022-12-25T11:32:21.619Z,94388.47
2022-12-25T11:34:49.738Z,94390.38
2022-12-25T11:37:20.781Z,94396.84
2022-12-25T11:39:47.703Z,94396.84
2022-12-25T11:42:34.033Z,94400.94
2022-12-25T11:45:10.152Z,94402.22
2022-12-25T11:47:39.037Z,94396.44
2022-12-25T11:50:16.468Z,94394.28
2022-12-25T11:52:45.871Z,94396.88
2022-12-25T11:55:30.575Z,94392.66
2022-12-25T11:57:59.529Z,94399.03
2022-12-25T12:00:27.763Z,94390.72
2022-12-25T12:03:06.753Z,94386.41
2022-12-25T12:05:53.799Z,94386.63
2022-12-25T12:08:20.539Z,94369.59
2022-12-25T12:11:24.585Z,94377.66
2022-12-25T12:14:27.653Z,94368.69
2022-12-25T12:16:54.490Z,94357.94
2022-12-25T12:19:29.125Z,94352.91
2022-12-25T12:21:57.820Z,94356.13
2022-12-25T12:24:28.988Z,94352.44
2022-12-25T12:27:05.073Z,94343.19
2022-12-25T12:29:42.702Z,94331.25
2022-12-25T12:32:43.334Z,94333.50
2022-12-25T12:35:16.293Z,94329.84
2022-12-25T12:37:45.541Z,94328.06
2022-12-25T12:40:29.794Z,94319.69
2022-12-25T12:42:56.918Z,94310.78
2022-12-25T12:45:33.087Z,94309.38
2022-12-25T12:47:59.963Z,94306.38
2022-12-25T12:50:34.169Z,94306.50
2022-12-25T12:53:16.373Z,94301.38
2022-12-25T12:55:43.139Z,94305.22
2022-12-25T12:58:12.542Z,94294.44
2022-12-25T13:00:47.444Z,94293.00
2022-12-25T13:03:26.853Z,94294.25
2022-12-25T13:06:02.191Z,94286.75
2022-12-25T13:08:47.212Z,94286.22
2022-12-25T13:11:21.671Z,94291.78
2022-12-25T13:13:50.293Z,94283.75
2022-12-25T13:16:26.962Z,94283.66
2022-12-25T13:18:55.724Z,94284.94
2022-12-25T13:21:27.566Z,94267.81
2022-12-25T13:23:59.186Z,94276.19
2022-12-25T13:26:26.394Z,94268.81
2022-12-25T13:28:56.049Z,94276.00
2022-12-25T13:31:27.746Z,94277.19
2022-12-25T13:34:22.356Z,94268.25
2022-12-25T13:36:49.516Z,94268.03
2022-12-25T13:39:17.217Z,94273.63
2022-12-25T13:42:08.478Z,94266.28
2022-12-25T13:44:48.154Z,94261.69
2022-12-25T13:47:33.410Z,94258.53
2022-12-25T13:50:14.961Z,94256.50
2022-12-25T13:52:41.816Z,94256.13
2022-12-25T13:55:14.501Z,94259.69
2022-12-25T13:57:45.131Z,94268.06
2022-12-25T14:00:24.287Z,94273.41
2022-12-25T14:02:51.613Z,94255.34
2022-12-25T14:05:55.813Z,94265.66
2022-12-25T14:08:25.755Z,94270.44
2022-12-25T14:10:53.251Z,94256.94
2022-12-25T14:13:23.122Z,94264.28
2022-12-25T14:15:51.076Z,94253.53
2022-12-25T14:18:19.388Z,94252.13
2022-12-25T14:21:35.684Z,94248.16
2022-12-25T14:24:02.579Z,94238.75
2022-12-25T14:26:33.695Z,94243.56
2022-12-25T14:29:15.786Z,94246.56
2022-12-25T14:31:44.989Z,94245.94
2022-12-25T14:34:23.336Z,94250.63
2022-12-25T14:36:51.344Z,94244.41
2022-12-25T14:39:31.679Z,94243.09
2022-12-25T14:41:58.642Z,94241.75
2022-12-25T14:44:38.889Z,94245.97
2022-12-25T14:47:11.056Z,94246.00
2022-12-25T14:49:38.172Z,94248.84
2022-12-25T14:52:16.345Z,94253.22
2022-12-25T14:54:54.295Z,94249.66
2022-12-25T14:57:31.512Z,94253.63
2022-12-25T15:00:00.914Z,94266.13
2022-12-25T15:02:35.729Z,94250.47
2022-12-25T15:05:02.831Z,94263.03
2022-12-25T15:07:31.511Z,94270.47
2022-12-25T15:10:27.089Z,94270.84
2022-12-25T15:12:45.150Z,94270.84
2022-12-25T15:15:12.047Z,94259.31
2022-12-25T15:17:38.754Z,94263.97
2022-12-25T15:20:08.666Z,94264.19
2022-12-25T15:23:02.415Z,94267.00
2022-12-25T15:25:23.524Z,94249.56
2022-12-25T15:27:50.243Z,94247.69
2022-12-25T15:30:17.050Z,94250.63
2022-12-25T15:32:43.971Z,94257.56
2022-12-25T15:35:16.774Z,94249.22
2022-12-25T15:37:43.660Z,94249.03
2022-12-25T15:40:14.667Z,94252.59
2022-12-25T15:42:44.867Z,94256.59
2022-12-25T15:45:17.716Z,94261.19
2022-12-25T15:47:44.521Z,94251.00
2022-12-25T15:50:12.038Z,94258.47
2022-12-25T15:52:38.876Z,94254.56
2022-12-25T15:55:06.715Z,94262.53
2022-12-25T15:57:35.169Z,94267.44
2022-12-25T16:00:03.869Z,94266.88
2022-12-25T16:02:30.625Z,94271.84
2022-12-25T16:04:57.483Z,94271.78
2022-12-25T16:07:25.891Z,94264.13
2022-12-25T16:09:52.718Z,94263.31
2022-12-25T16:12:19.990Z,94262.13
2022-12-25T16:14:46.806Z,94259.19
2022-12-25T16:17:15.748Z,94266.34
2022-12-25T16:19:44.950Z,94259.63
2022-12-25T16:22:21.532Z,94262.50
2022-12-25T16:24:52.094Z,94259.91
2022-12-25T16:27:18.821Z,94275.06
2022-12-25T16:29:45.614Z,94279.91
2022-12-25T16:32:13.473Z,94282.25
2022-12-25T16:34:40.755Z,94292.50
2022-12-25T16:37:07.622Z,94290.91
2022-12-25T16:39:34.347Z,94300.72
2022-12-25T16:42:00.945Z,94299.59
2022-12-25T16:44:27.905Z,94299.38
2022-12-25T16:46:54.675Z,94301.69
2022-12-25T16:49:21.554Z,94305.19
2022-12-25T16:51:48.334Z,94302.13
2022-12-25T16:54:15.151Z,94302.38
2022-12-25T16:56:41.903Z,94302.53
2022-12-25T16:59:09.087Z,94315.59
2022-12-25T17:01:36.006Z,94316.50
2022-12-25T17:04:02.997Z,94301.94
2022-12-25T17:06:29.920Z,94303.50
2022-12-25T17:08:58.954Z,94310.94
2022-12-25T17:11:29.955Z,94307.63
2022-12-25T17:13:59.928Z,94308.63
2022-12-25T17:16:29.254Z,94306.88
2022-12-25T17:19:04.396Z,94293.25
2022-12-25T17:21:35.062Z,94292.69
2022-12-25T17:24:04.188Z,94297.91
2022-12-25T17:26:32.162Z,94306.91
2022-12-25T17:28:59.317Z,94309.81
2022-12-25T17:31:26.214Z,94303.75
2022-12-25T17:33:53.301Z,94315.03
2022-12-25T17:36:21.251Z,94310.22
2022-12-25T17:38:48.456Z,94324.31
2022-12-25T17:41:16.798Z,94317.06
2022-12-25T17:43:45.895Z,94314.88
2022-12-25T17:46:24.773Z,94316.94
2022-12-25T17:48:52.904Z,94312.94
2022-12-25T17:51:21.743Z,94322.06
2022-12-25T17:53:51.506Z,94325.44
2022-12-25T17:56:18.548Z,94319.53
2022-12-25T17:58:49.152Z,94325.63
2022-12-25T18:01:16.673Z,94320.31
2022-12-25T18:03:44.890Z,94330.06
2022-12-25T18:06:14.796Z,94323.19
2022-12-25T18:08:42.462Z,94326.75
2022-12-25T18:11:11.139Z,94330.63
2022-12-25T18:13:38.023Z,94331.25
2022-12-25T18:16:07.278Z,94330.47
2022-12-25T18:18:34.429Z,94325.16
2022-12-25T18:21:02.258Z,94326.44
2022-12-25T18:23:29.462Z,94317.00
2022-12-25T18:25:56.803Z,94321.84
2022-12-25T18:28:23.713Z,94303.91
2022-12-25T18:30:50.670Z,94310.75
2022-12-25T18:33:17.398Z,94291.56
2022-12-25T18:35:46.743Z,94306.78
2022-12-25T18:38:13.955Z,94310.31
2022-12-25T18:40:45.773Z,94307.75
2022-12-25T18:43:13.092Z,94313.19
2022-12-25T18:45:40.090Z,94318.47
2022-12-25T18:48:07.343Z,94316.69
2022-12-25T18:50:35.473Z,94313.53
2022-12-25T18:53:02.850Z,94309.53
2022-12-25T18:55:29.707Z,94308.72
2022-12-25T18:57:56.597Z,94319.91
2022-12-25T19:00:23.743Z,94317.50
2022-12-25T19:02:50.948Z,94315.44
2022-12-25T19:05:18.027Z,94310.16
2022-12-25T19:07:44.826Z,94313.84
2022-12-25T19:10:11.738Z,94310.47
2022-12-25T19:12:38.472Z,94308.38
2022-12-25T19:15:05.658Z,94306.31
2022-12-25T19:17:34.371Z,94306.31
2022-12-25T19:20:01.150Z,94307.56
2022-12-25T19:22:27.995Z,94315.91
2022-12-25T19:24:54.745Z,94313.19
2022-12-25T19:27:21.543Z,94315.88
2022-12-25T19:29:48.424Z,94322.28
2022-12-25T19:32:15.145Z,94322.78
2022-12-25T19:34:41.844Z,94326.00
2022-12-25T19:37:08.566Z,94334.91
2022-12-25T19:39:35.316Z,94332.34
2022-12-25T19:42:02.035Z,94326.56
2022-12-25T19:44:28.834Z,94333.63
2022-12-25T19:46:55.944Z,94331.41
2022-12-25T19:49:22.829Z,94319.22
2022-12-25T19:51:49.578Z,94316.66
2022-12-25T19:54:17.229Z,94312.31
2022-12-25T19:56:43.910Z,94316.66
2022-12-25T19:59:12.568Z,94310.91
2022-12-25T20:01:39.490Z,94314.75
2022-12-25T20:04:10.720Z,94303.53
2022-12-25T20:06:38.920Z,94316.94
2022-12-25T20:09:08.263Z,94306.75
2022-12-25T20:11:36.057Z,94297.75
2022-12-25T20:14:03.271Z,94313.41
2022-12-25T20:16:30.051Z,94295.47
2022-12-25T20:18:57.339Z,94313.91
2022-12-25T20:21:24.395Z,94314.19
2022-12-25T20:23:52.801Z,94322.38
2022-12-25T20:26:21.694Z,94315.28
2022-12-25T20:28:48.770Z,94318.78
2022-12-25T20:31:19.480Z,94317.22
2022-12-25T20:33:46.371Z,94314.66
2022-12-25T20:36:13.488Z,94310.44
2022-12-25T20:38:40.887Z,94327.59
2022-12-25T20:41:27.413Z,94320.22
2022-12-25T20:43:55.925Z,94318.47
2022-12-25T20:46:23.153Z,94324.34
2022-12-25T20:48:50.062Z,94335.63
2022-12-25T20:51:19.149Z,94332.28
2022-12-25T20:53:46.176Z,94333.88
2022-12-25T20:56:14.422Z,94337.75
2022-12-25T20:58:41.203Z,94334.03
2022-12-25T21:01:12.950Z,94336.91
2022-12-25T21:03:40.360Z,94349.72
2022-12-25T21:06:08.490Z,94346.47
2022-12-25T21:08:36.510Z,94348.38
2022-12-25T21:11:04.166Z,94343.69
2022-12-25T21:13:37.093Z,94346.63
2022-12-25T21:16:09.175Z,94349.66
2022-12-25T21:18:35.766Z,94353.91
2022-12-25T21:21:06.544Z,94353.69
2022-12-25T21:23:35.057Z,94346.44
2022-12-25T21:26:13.213Z,94357.94
2022-12-25T21:28:39.996Z,94354.41
2022-12-25T21:31:09.141Z,94358.50
2022-12-25T21:33:54.953Z,94357.19
2022-12-25T21:36:23.494Z,94366.53
2022-12-25T21:38:57.862Z,94362.34
2022-12-25T21:41:25.354Z,94373.53
2022-12-25T21:43:52.024Z,94367.19
2022-12-25T21:46:18.871Z,94373.13
2022-12-25T21:48:45.980Z,94366.91
2022-12-25T21:51:31.255Z,94376.75
2022-12-25T21:53:58.224Z,94385.38
2022-12-25T21:56:25.725Z,94373.91
2022-12-25T21:58:52.330Z,94380.03
2022-12-25T22:01:19.143Z,94387.94
2022-12-25T22:03:46.128Z,94393.69
2022-12-25T22:06:32.504Z,94391.78
2022-12-25T22:08:59.161Z,94401.50
2022-12-25T22:11:45.196Z,94405.22
2022-12-25T22:14:50.109Z,94412.91
2022-12-25T22:17:44.355Z,94409.09
2022-12-25T22:20:18.014Z,94399.03
2022-12-25T22:22:44.734Z,94400.47
2022-12-25T22:25:11.984Z,94395.44
2022-12-25T22:27:39.723Z,94392.44
2022-12-25T22:30:10.588Z,94383.97
2022-12-25T22:32:37.543Z,94379.16
2022-12-25T22:35:04.488Z,94385.06
2022-12-25T22:37:31.079Z,94387.00
2022-12-25T22:39:58.147Z,94386.81
2022-12-25T22:42:24.780Z,94391.50
2022-12-25T22:44:51.439Z,94397.13
2022-12-25T22:47:18.216Z,94398.28
2022-12-25T22:49:44.877Z,94407.38
2022-12-25T22:52:11.539Z,94406.91
2022-12-25T22:54:38.161Z,94402.09
2022-12-25T22:57:04.925Z,94412.22
2022-12-25T22:59:32.999Z,94408.28
2022-12-25T23:02:00.440Z,94404.59
2022-12-25T23:04:27.811Z,94408.09
2022-12-25T23:06:54.473Z,94408.41
2022-12-25T23:09:27.437Z,94403.69
2022-12-25T23:11:57.854Z,94420.53
2022-12-25T23:14:41.955Z,94420.03
2022-12-25T23:17:31.601Z,94424.03
2022-12-25T23:20:18.412Z,94418.25
2022-12-25T23:23:03.993Z,94405.81
2022-12-25T23:25:49.715Z,94410.09
2022-12-25T23:28:36.319Z,94412.78
2022-12-25T23:31:02.961Z,94420.03
2022-12-25T23:33:29.658Z,94416.97
2022-12-25T23:35:56.407Z,94425.06
2022-12-25T23:38:23.143Z,94406.91
2022-12-25T23:40:49.739Z,94414.81
2022-12-25T23:43:16.354Z,94417.22
2022-12-25T23:45:43.012Z,94404.38
2022-12-25T23:48:09.615Z,94418.09
2022-12-25T23:50:36.264Z,94422.81
2022-12-25T23:53:02.849Z,94433.31
2022-12-25T23:55:29.485Z,94433.56
2022-12-25T23:57:56.369Z,94434.34
